Aniara — SKJC — position and weather

sailwx.info

Track history (hours):
 
Tides and Currents Weather Stations Pressure Air Temp Water Temp Dewpoint Dewpoint Depression Visibility Wind Speed Wind Dir Waves Ship Positions

Aniara

Last reported at 2015-Sep-03 11:33 UTC. Time now 2015-Sep-04 16:31 UTC.
Position N 01°14' E 103°59'.

Length 232 m; draft 9.2 m.

Type: Cargo ship. MMSI: 266282000.

Date/timePositionNaut miles runAvg speedWind from/ knotsBaromVisibWave heightAir tempDewpointWater temp
2015-Sep-03 11:33N 01°14' E 103°59'1212.6
2015-Sep-03 10:33N 01°14' E 103°47'4 3.6
2015-Sep-03 09:33N 01°17' E 103°45'0 0.0
2015-Sep-03 08:30N 01°17' E 103°45'0 0.0
2015-Sep-03 07:30N 01°17' E 103°45'0 0.0
2015-Sep-03 06:27N 01°17' E 103°45'0 0.2
2015-Sep-03 05:33N 01°17' E 103°45'6 6.1
2015-Sep-03 04:33N 01°12' E 103°49'9 3.9
2015-Sep-03 02:17N 01°17' E 103°56'0 0.0
2015-Sep-03 01:14N 01°17' E 103°56'0 0.0
2015-Sep-02 23:32N 01°17' E 103°56'0 0.0
2015-Sep-02 19:14N 01°17' E 103°56'0 0.0
2015-Sep-02 17:29N 01°17' E 103°56'0 0.0
2015-Sep-02 15:34N 01°17' E 103°56'4 3.6
2015-Sep-02 14:34N 01°14' E 103°54'11 9.4
2015-Sep-02 13:25N 01°17' E 103°44'1 0.4
2015-Sep-02 11:25N 01°18' E 103°44'0 0.0
2015-Sep-02 09:25N 01°18' E 103°44'0 0.0
2015-Sep-02 07:13N 01°18' E 103°44'0 0.0
2015-Sep-02 06:31N 01°18' E 103°44'0 0.0
2015-Sep-02 05:19N 01°18' E 103°44'0 0.0
2015-Sep-02 03:31N 01°18' E 103°44'0 0.0
2015-Sep-02 02:31N 01°18' E 103°44'0 0.0
2015-Sep-02 01:25N 01°18' E 103°44'0 0.0
2015-Sep-02 00:31N 01°18' E 103°44'0 0.0
2015-Sep-01 23:31N 01°18' E 103°44'0 0.0
2015-Sep-01 21:07N 01°18' E 103°44'0 0.0
2015-Sep-01 20:31N 01°18' E 103°44'0 0.0
2015-Sep-01 19:25N 01°18' E 103°44'0 0.0
2015-Sep-01 18:07N 01°18' E 103°44'0 0.0
2015-Sep-01 13:07N 01°18' E 103°44'0 0.0
2015-Sep-01 12:31N 01°18' E 103°44'0 0.0
2015-Sep-01 11:31N 01°18' E 103°44'0 0.0
2015-Sep-01 10:25N 01°18' E 103°44'0 0.0
2015-Sep-01 08:31N 01°18' E 103°44'0 0.0
2015-Sep-01 07:19N 01°18' E 103°44'0 0.0
2015-Sep-01 06:25N 01°18' E 103°44'0 0.0
2015-Sep-01 05:19N 01°18' E 103°44'0 0.0
2015-Sep-01 04:31N 01°18' E 103°44'0 0.0
2015-Sep-01 03:25N 01°18' E 103°44'0 0.0
2015-Sep-01 02:22N 01°18' E 103°44'2 3.0
2015-Sep-01 01:33N 01°16' E 103°45'1312.4
2015-Sep-01 00:30N 01°15' E 103°58'  
Track history (hours):
 
Tides and Currents Weather Stations Pressure Air Temp Water Temp Dewpoint Dewpoint Depression Visibility Wind Speed Wind Dir Waves Ship Positions

Aniara

Last reported at 2015-Sep-03 11:33 UTC. Time now 2015-Sep-04 16:31 UTC.
Position N 01°14' E 103°59'.

Length 232 m; draft 9.2 m.

Type: Cargo ship. MMSI: 266282000.

Date/timePositionNaut miles runAvg speedWind from/ knotsBaromVisibWave heightAir tempDewpointWater temp
2015-Sep-03 11:33N 01°14' E 103°59'1212.6
2015-Sep-03 10:33N 01°14' E 103°47'4 3.6
2015-Sep-03 09:33N 01°17' E 103°45'0 0.0
2015-Sep-03 08:30N 01°17' E 103°45'0 0.0
2015-Sep-03 07:30N 01°17' E 103°45'0 0.0
2015-Sep-03 06:27N 01°17' E 103°45'0 0.2
2015-Sep-03 05:33N 01°17' E 103°45'6 6.1
2015-Sep-03 04:33N 01°12' E 103°49'9 3.9
2015-Sep-03 02:17N 01°17' E 103°56'0 0.0
2015-Sep-03 01:14N 01°17' E 103°56'0 0.0
2015-Sep-02 23:32N 01°17' E 103°56'0 0.0
2015-Sep-02 19:14N 01°17' E 103°56'0 0.0
2015-Sep-02 17:29N 01°17' E 103°56'0 0.0
2015-Sep-02 15:34N 01°17' E 103°56'4 3.6
2015-Sep-02 14:34N 01°14' E 103°54'11 9.4
2015-Sep-02 13:25N 01°17' E 103°44'1 0.4
2015-Sep-02 11:25N 01°18' E 103°44'0 0.0
2015-Sep-02 09:25N 01°18' E 103°44'0 0.0
2015-Sep-02 07:13N 01°18' E 103°44'0 0.0
2015-Sep-02 06:31N 01°18' E 103°44'0 0.0
2015-Sep-02 05:19N 01°18' E 103°44'0 0.0
2015-Sep-02 03:31N 01°18' E 103°44'0 0.0
2015-Sep-02 02:31N 01°18' E 103°44'0 0.0
2015-Sep-02 01:25N 01°18' E 103°44'0 0.0
2015-Sep-02 00:31N 01°18' E 103°44'0 0.0
2015-Sep-01 23:31N 01°18' E 103°44'0 0.0
2015-Sep-01 21:07N 01°18' E 103°44'0 0.0
2015-Sep-01 20:31N 01°18' E 103°44'0 0.0
2015-Sep-01 19:25N 01°18' E 103°44'0 0.0
2015-Sep-01 18:07N 01°18' E 103°44'0 0.0
2015-Sep-01 13:07N 01°18' E 103°44'0 0.0
2015-Sep-01 12:31N 01°18' E 103°44'0 0.0
2015-Sep-01 11:31N 01°18' E 103°44'0 0.0
2015-Sep-01 10:25N 01°18' E 103°44'0 0.0
2015-Sep-01 08:31N 01°18' E 103°44'0 0.0
2015-Sep-01 07:19N 01°18' E 103°44'0 0.0
2015-Sep-01 06:25N 01°18' E 103°44'0 0.0
2015-Sep-01 05:19N 01°18' E 103°44'0 0.0
2015-Sep-01 04:31N 01°18' E 103°44'0 0.0
2015-Sep-01 03:25N 01°18' E 103°44'0 0.0
2015-Sep-01 02:22N 01°18' E 103°44'2 3.0
2015-Sep-01 01:33N 01°16' E 103°45'1312.4
2015-Sep-01 00:30N 01°15' E 103°58'  

Dump ship's entire track history